Time,TemperatureF,DewpointF,PressureIn,WindDirection,WindDirectionDegrees,WindSpeedMPH,WindSpeedGustMPH,Humidity,HourlyPrecipIn,Conditions,Clouds,dailyrainin,SolarRadiationWatts/m^2,SoftwareType,DateUTC
2014-03-02 00:00:00,56.5,55.1,30.08,NE,48,0.0,14.0,95,0.00,,,0.00,0,Wunderground v.1.15,2014-03-02 05:00:00,
2014-03-02 00:20:00,56.2,55.1,30.08,NE,43,0.0,14.0,96,0.00,,,0.00,0,Wunderground v.1.15,2014-03-02 05:20:00,
2014-03-02 00:40:00,55.8,54.4,30.08,NE,43,0.0,14.0,95,0.00,,,0.00,0,Wunderground v.1.15,2014-03-02 05:40:00,
2014-03-02 00:50:00,55.6,54.5,30.08,NE,43,0.0,14.0,96,0.00,,,0.00,0,Wunderground v.1.15,2014-03-02 05:50:00,
2014-03-02 01:30:00,55.4,54.6,30.08,NE,34,0.0,14.0,97,0.00,,,0.00,0,Wunderground v.1.15,2014-03-02 06:30:00,
2014-03-02 01:40:00,55.3,54.5,30.07,NE,34,0.0,14.0,97,0.00,,,0.00,0,Wunderground v.1.15,2014-03-02 06:40:00,
2014-03-02 01:50:00,55.3,54.5,30.07,North,5,0.0,14.0,97,0.00,,,0.00,0,Wunderground v.1.15,2014-03-02 06:50:00,
2014-03-02 02:00:00,55.1,54.3,30.07,North,5,0.0,14.0,97,0.00,,,0.00,0,Wunderground v.1.15,2014-03-02 07:00:00,
2014-03-02 02:30:00,54.7,53.9,30.07,North,5,0.0,14.0,97,0.00,,,0.00,0,Wunderground v.1.15,2014-03-02 07:30:00,
2014-03-02 04:10:00,52.7,51.9,30.05,North,5,0.0,14.0,97,0.00,,,0.00,0,Wunderground v.1.15,2014-03-02 09:10:00,
2014-03-02 04:20:00,52.0,50.9,30.05,North,5,0.0,14.0,96,0.00,,,0.00,0,Wunderground v.1.15,2014-03-02 09:20:00,
2014-03-02 05:10:00,49.4,48.6,30.06,North,5,0.0,14.0,97,0.00,,,0.00,0,Wunderground v.1.15,2014-03-02 10:10:00,
2014-03-02 05:30:00,48.7,47.9,30.06,North,5,0.0,14.0,97,0.00,,,0.00,0,Wunderground v.1.15,2014-03-02 10:30:00,
2014-03-02 05:50:00,48.3,47.5,30.06,North,5,0.0,14.0,97,0.00,,,0.00,0,Wunderground v.1.15,2014-03-02 10:50:00,
2014-03-02 06:10:00,47.9,47.1,30.06,North,5,0.0,14.0,97,0.00,,,0.00,0,Wunderground v.1.15,2014-03-02 11:10:00,
2014-03-02 06:30:00,47.6,46.8,30.07,North,5,0.0,14.0,97,0.00,,,0.00,0,Wunderground v.1.15,2014-03-02 11:30:00,
2014-03-02 06:40:00,47.6,47.1,30.07,North,5,0.0,14.0,98,0.00,,,0.00,0,Wunderground v.1.15,2014-03-02 11:40:00,
2014-03-02 07:00:00,47.5,47.0,30.08,North,5,0.0,14.0,98,0.00,,,0.00,11,Wunderground v.1.15,2014-03-02 12:00:00,
2014-03-02 07:20:00,48.2,47.7,30.09,North,5,0.0,14.0,98,0.00,,,0.00,21,Wunderground v.1.15,2014-03-02 12:20:00,
2014-03-02 07:50:00,56.0,55.7,30.10,North,355,1.0,14.0,99,0.00,,,0.00,30,Wunderground v.1.15,2014-03-02 12:50:00,
2014-03-02 08:00:00,57.8,57.5,30.10,NNE,15,1.0,14.0,99,0.00,,,0.00,32,Wunderground v.1.15,2014-03-02 13:00:00,
2014-03-02 08:20:00,60.2,59.9,30.11,NNE,22,2.0,14.0,99,0.00,,,0.00,35,Wunderground v.1.15,2014-03-02 13:20:00,
2014-03-02 08:30:00,61.1,60.8,30.11,NNW,339,3.0,14.0,99,0.00,,,0.00,35,Wunderground v.1.15,2014-03-02 13:30:00,
2014-03-02 09:50:00,73.2,63.2,30.11,ENE,78,4.0,4.0,71,0.00,,,0.00,44,Wunderground v.1.15,2014-03-02 14:50:00,
2014-03-02 10:30:00,77.7,62.2,30.10,ESE,115,3.0,3.0,59,0.00,,,0.00,51,Wunderground v.1.15,2014-03-02 15:30:00,
2014-03-02 10:40:00,77.7,62.7,30.10,SE,132,4.0,4.0,60,0.00,,,0.00,105,Wunderground v.1.15,2014-03-02 15:40:00,
2014-03-02 10:50:00,78.0,61.5,30.10,SE,146,3.0,3.0,57,0.00,,,0.00,204,Wunderground v.1.15,2014-03-02 15:50:00,
2014-03-02 11:00:00,78.7,60.7,30.10,SE,140,3.0,3.0,54,0.00,,,0.00,267,Wunderground v.1.15,2014-03-02 16:00:00,
2014-03-02 11:10:00,79.1,60.5,30.09,SW,224,2.0,14.0,53,0.00,,,0.00,93,Wunderground v.1.15,2014-03-02 16:10:00,
2014-03-02 11:30:00,79.3,59.6,30.09,ENE,74,3.0,3.0,51,0.00,,,0.00,411,Wunderground v.1.15,2014-03-02 16:30:00,
2014-03-02 12:10:00,82.1,57.4,30.07,East,96,5.0,5.0,43,0.00,,,0.00,926,Wunderground v.1.15,2014-03-02 17:10:00,
2014-03-02 12:30:00,83.2,57.1,30.06,SE,134,5.0,5.0,41,0.00,,,0.00,974,Wunderground v.1.15,2014-03-02 17:30:00,
2014-03-02 12:40:00,83.1,57.0,30.05,SSE,159,4.0,4.0,41,0.00,,,0.00,974,Wunderground v.1.15,2014-03-02 17:40:00,
2014-03-02 13:00:00,83.0,55.5,30.04,NNW,345,3.0,3.0,39,0.00,,,0.00,962,Wunderground v.1.15,2014-03-02 18:00:00,
2014-03-02 13:50:00,83.6,56.0,30.01,SE,143,3.0,3.0,39,0.00,,,0.00,991,Wunderground v.1.15,2014-03-02 18:50:00,
2014-03-02 14:00:00,83.0,55.5,30.01,SE,128,2.0,14.0,39,0.00,,,0.00,930,Wunderground v.1.15,2014-03-02 19:00:00,
2014-03-02 14:10:00,82.8,56.0,30.00,ESE,111,3.0,3.0,40,0.00,,,0.00,895,Wunderground v.1.15,2014-03-02 19:10:00,
2014-03-02 14:40:00,83.9,55.6,30.00,ESE,120,2.0,2.0,38,0.00,,,0.00,156,Wunderground v.1.15,2014-03-02 19:40:00,
2014-03-02 15:20:00,81.3,56.0,29.98,SSE,163,1.0,1.0,42,0.00,,,0.00,144,Wunderground v.1.15,2014-03-02 20:20:00,
2014-03-02 15:30:00,81.6,56.9,29.98,ENE,58,1.0,14.0,43,0.00,,,0.00,132,Wunderground v.1.15,2014-03-02 20:30:00,
2014-03-02 16:00:00,83.3,56.5,29.97,SE,136,2.0,2.0,40,0.00,,,0.00,652,Wunderground v.1.15,2014-03-02 21:00:00,
2014-03-02 16:10:00,83.2,55.0,29.97,SSE,155,1.0,14.0,38,0.00,,,0.00,612,Wunderground v.1.15,2014-03-02 21:10:00,
2014-03-02 20:50:00,62.2,58.0,30.00,WSW,239,1.0,14.0,86,0.00,,,0.00,0,Wunderground v.1.15,2014-03-03 01:50:00,
2014-03-02 21:10:00,67.3,59.5,30.00,SSW,196,3.0,14.0,76,0.00,,,0.00,0,Wunderground v.1.15,2014-03-03 02:10:00,
2014-03-02 21:20:00,68.4,59.4,30.00,SW,220,2.0,14.0,73,0.00,,,0.00,0,Wunderground v.1.15,2014-03-03 02:20:00,
2014-03-02 21:50:00,66.5,58.7,30.00,West,271,1.0,14.0,76,0.00,,,0.00,0,Wunderground v.1.15,2014-03-03 02:50:00,
2014-03-02 22:10:00,63.8,57.9,30.00,West,269,0.0,14.0,81,0.00,,,0.00,0,Wunderground v.1.15,2014-03-03 03:10:00,
2014-03-02 22:50:00,60.4,56.5,29.99,West,269,0.0,14.0,87,0.00,,,0.00,0,Wunderground v.1.15,2014-03-03 03:50:00,
2014-03-02 23:00:00,59.8,56.6,29.99,West,269,0.0,14.0,89,0.00,,,0.00,0,Wunderground v.1.15,2014-03-03 04:00:00,
2014-03-02 23:30:00,58.2,55.6,29.98,West,269,0.0,14.0,91,0.00,,,0.00,0,Wunderground v.1.15,2014-03-03 04:30:00,
2014-03-02 23:40:00,57.7,55.1,29.98,West,269,0.0,14.0,91,0.00,,,0.00,0,Wunderground v.1.15,2014-03-03 04:40:00,